createdAt,value
2023-04-12T00:00:27.511Z,1.67
2023-04-12T00:02:54.810Z,1.90
2023-04-12T00:05:22.965Z,1.60
2023-04-12T00:07:53.346Z,1.80
2023-04-12T00:10:21.627Z,1.67
2023-04-12T00:12:50.867Z,1.57
2023-04-12T00:15:17.709Z,1.70
2023-04-12T00:17:47.558Z,1.80
2023-04-12T00:20:18.210Z,2.23
2023-04-12T00:22:47.652Z,1.67
2023-04-12T00:25:16.716Z,1.87
2023-04-12T00:27:48.138Z,1.73
2023-04-12T00:30:18.130Z,1.60
2023-04-12T00:32:45.595Z,1.63
2023-04-12T00:35:12.441Z,1.40
2023-04-12T00:37:39.522Z,1.40
2023-04-12T00:40:14.621Z,2.10
2023-04-12T00:42:41.840Z,1.77
2023-04-12T00:45:09.835Z,1.83
2023-04-12T00:47:40.231Z,2.30
2023-04-12T00:50:10.755Z,1.63
2023-04-12T00:52:41.785Z,2.07
2023-04-12T00:55:13.356Z,1.80
2023-04-12T00:57:45.488Z,1.80
2023-04-12T01:00:16.819Z,1.80
2023-04-12T01:02:47.518Z,1.90
2023-04-12T01:05:23.440Z,1.73
2023-04-12T01:08:05.351Z,1.33
2023-04-12T01:10:55.708Z,1.30
2023-04-12T01:14:05.405Z,1.70
2023-04-12T01:16:53.631Z,1.73
2023-04-12T01:19:34.780Z,1.70
2023-04-12T01:22:28.950Z,1.70
2023-04-12T01:25:04.784Z,1.20
2023-04-12T01:27:45.086Z,1.73
2023-04-12T01:30:17.610Z,1.70
2023-04-12T01:32:51.512Z,1.80
2023-04-12T01:35:22.021Z,2.10
2023-04-12T01:37:51.272Z,2.53
2023-04-12T01:40:21.716Z,1.60
2023-04-12T01:42:50.914Z,1.40
2023-04-12T01:45:17.708Z,1.50
2023-04-12T01:47:47.162Z,2.17
2023-04-12T01:50:23.296Z,1.27
2023-04-12T01:53:05.559Z,1.43
2023-04-12T01:55:37.196Z,1.37
2023-04-12T01:58:09.169Z,1.43
2023-04-12T02:00:37.558Z,1.90
2023-04-12T02:03:09.912Z,1.57
2023-04-12T02:05:37.015Z,1.50
2023-04-12T02:08:06.890Z,1.17
2023-04-12T02:10:36.516Z,1.50
2023-04-12T02:13:06.504Z,1.70
2023-04-12T02:15:37.186Z,1.50
2023-04-12T02:18:13.791Z,1.57
2023-04-12T02:20:44.485Z,1.83
2023-04-12T02:23:13.501Z,1.67
2023-04-12T02:25:44.068Z,1.53
2023-04-12T02:28:11.193Z,1.70
2023-04-12T02:30:43.654Z,1.70
2023-04-12T02:33:13.500Z,1.60
2023-04-12T02:35:42.501Z,2.80
2023-04-12T02:38:13.244Z,2.00
2023-04-12T02:40:43.944Z,2.00
2023-04-12T02:43:14.788Z,1.90
2023-04-12T02:45:48.457Z,1.60
2023-04-12T02:48:17.893Z,2.00
2023-04-12T02:50:49.829Z,1.60
2023-04-12T02:53:22.971Z,2.00
2023-04-12T02:56:07.572Z,1.97
2023-04-12T02:58:37.652Z,1.60
2023-04-12T03:01:13.059Z,1.43
2023-04-12T03:03:57.405Z,2.00
2023-04-12T03:06:40.167Z,1.70
2023-04-12T03:09:15.923Z,1.70
2023-04-12T03:11:43.158Z,2.00
2023-04-12T03:14:11.996Z,1.83
2023-04-12T03:16:43.157Z,2.20
2023-04-12T03:19:14.941Z,1.93
2023-04-12T03:21:46.670Z,1.80
2023-04-12T03:24:16.773Z,1.83
2023-04-12T03:26:48.273Z,2.37
2023-04-12T03:29:20.826Z,2.40
2023-04-12T03:31:49.115Z,1.80
2023-04-12T03:34:16.316Z,2.10
2023-04-12T03:36:47.443Z,1.97
2023-04-12T03:39:29.156Z,2.10
2023-04-12T03:41:58.077Z,2.00
2023-04-12T03:44:32.597Z,2.60
2023-04-12T03:47:02.853Z,2.10
2023-04-12T03:49:38.073Z,2.27
2023-04-12T03:52:12.935Z,3.23
2023-04-12T03:54:43.744Z,2.20
2023-04-12T03:57:14.837Z,1.90
2023-04-12T03:59:46.866Z,2.10
2023-04-12T04:02:15.056Z,1.70
2023-04-12T04:04:49.244Z,1.80
2023-04-12T04:07:24.867Z,1.47
2023-04-12T04:09:59.889Z,1.60
2023-04-12T04:12:32.523Z,1.93
2023-04-12T04:15:04.038Z,1.70
2023-04-12T04:17:33.352Z,1.70
2023-04-12T04:20:05.271Z,1.90
2023-04-12T04:22:33.646Z,2.30
2023-04-12T04:25:02.956Z,1.70
2023-04-12T04:27:38.191Z,1.90
2023-04-12T04:30:07.815Z,2.10
2023-04-12T04:32:43.186Z,2.03
2023-04-12T04:35:16.701Z,2.03
2023-04-12T04:38:03.301Z,1.97
2023-04-12T04:40:36.430Z,1.97
2023-04-12T04:43:03.503Z,1.70
2023-04-12T04:45:38.682Z,2.00
2023-04-12T04:48:07.907Z,1.70
2023-04-12T04:50:34.749Z,1.57
2023-04-12T04:53:05.380Z,2.00
2023-04-12T04:55:36.738Z,2.00
2023-04-12T04:58:08.818Z,1.67
2023-04-12T05:00:36.261Z,1.63
2023-04-12T05:03:05.415Z,1.77
2023-04-12T05:05:32.479Z,1.67
2023-04-12T05:08:09.108Z,1.70
2023-04-12T05:10:41.334Z,1.60
2023-04-12T05:13:09.788Z,1.50
2023-04-12T05:15:42.788Z,1.60
2023-04-12T05:18:11.796Z,1.63
2023-04-12T05:20:41.569Z,1.70
2023-04-12T05:23:08.504Z,1.60
2023-04-12T05:25:44.231Z,1.50
2023-04-12T05:28:14.095Z,1.30
2023-04-12T05:30:45.328Z,1.83
2023-04-12T05:33:15.767Z,1.60
2023-04-12T05:35:51.539Z,1.80
2023-04-12T05:38:18.689Z,1.60
2023-04-12T05:40:52.797Z,1.57
2023-04-12T05:43:25.317Z,1.83
2023-04-12T05:45:57.166Z,1.50
2023-04-12T05:48:24.003Z,1.47
2023-04-12T05:50:55.775Z,1.73
2023-04-12T05:53:29.737Z,1.77
2023-04-12T05:56:02.156Z,1.63
2023-04-12T05:58:29.632Z,1.50
2023-04-12T06:01:04.677Z,1.70
2023-04-12T06:03:33.486Z,1.63
2023-04-12T06:06:11.272Z,1.70
2023-04-12T06:08:40.339Z,1.17
2023-04-12T06:11:12.185Z,1.50
2023-04-12T06:13:43.215Z,1.60
2023-04-12T06:16:11.259Z,1.73
2023-04-12T06:18:38.913Z,1.37
2023-04-12T06:21:08.880Z,1.40
2023-04-12T06:23:39.699Z,1.50
2023-04-12T06:26:09.389Z,1.30
2023-04-12T06:28:38.975Z,1.40
2023-04-12T06:31:06.861Z,1.30
2023-04-12T06:33:47.370Z,1.93
2023-04-12T06:36:21.378Z,1.77
2023-04-12T06:38:51.359Z,1.60
2023-04-12T06:41:18.168Z,1.20
2023-04-12T06:43:47.133Z,1.30
2023-04-12T06:46:18.698Z,1.77
2023-04-12T06:48:47.854Z,1.63
2023-04-12T06:51:21.475Z,1.23
2023-04-12T06:53:52.570Z,1.50
2023-04-12T06:56:21.727Z,1.57
2023-04-12T06:58:48.558Z,1.40
2023-04-12T07:01:15.465Z,1.53
2023-04-12T07:03:47.005Z,1.70
2023-04-12T07:06:25.054Z,1.40
2023-04-12T07:08:52.429Z,1.63
2023-04-12T07:11:21.861Z,1.37
2023-04-12T07:13:49.607Z,1.30
2023-04-12T07:16:23.273Z,1.37
2023-04-12T07:18:50.482Z,1.30
2023-04-12T07:21:22.401Z,1.60
2023-04-12T07:23:51.214Z,1.27
2023-04-12T07:26:21.623Z,1.30
2023-04-12T07:28:50.932Z,1.40
2023-04-12T07:31:20.332Z,1.37
2023-04-12T07:33:47.450Z,1.20
2023-04-12T07:36:16.610Z,1.27
2023-04-12T07:38:43.902Z,1.20
2023-04-12T07:41:13.032Z,1.13
2023-04-12T07:43:39.950Z,1.27
2023-04-12T07:46:11.951Z,1.37
2023-04-12T07:48:41.249Z,0.90
2023-04-12T07:51:15.830Z,1.20
2023-04-12T07:53:42.717Z,1.10
2023-04-12T07:56:14.574Z,1.33
2023-04-12T07:58:41.787Z,1.20
2023-04-12T08:01:08.848Z,1.50
2023-04-12T08:03:38.637Z,1.23
2023-04-12T08:06:08.417Z,1.30
2023-04-12T08:08:35.426Z,1.23
2023-04-12T08:11:03.049Z,1.20
2023-04-12T08:13:32.309Z,1.23
2023-04-12T08:16:01.866Z,1.53
2023-04-12T08:18:31.631Z,1.40
2023-04-12T08:21:01.224Z,1.70
2023-04-12T08:23:28.243Z,2.57
2023-04-12T08:26:02.991Z,1.83
2023-04-12T08:28:31.164Z,1.17
2023-04-12T08:31:00.980Z,1.07
2023-04-12T08:33:27.889Z,1.20
2023-04-12T08:35:55.640Z,1.17
2023-04-12T08:38:37.204Z,1.20
2023-04-12T08:41:08.878Z,1.23
2023-04-12T08:43:40.442Z,1.30
2023-04-12T08:46:10.733Z,1.13
2023-04-12T08:48:42.093Z,1.40
2023-04-12T08:51:16.667Z,1.00
2023-04-12T08:53:46.481Z,1.33
2023-04-12T08:56:14.845Z,1.20
2023-04-12T08:58:50.455Z,1.30
2023-04-12T09:01:20.217Z,1.27
2023-04-12T09:03:49.621Z,1.33
2023-04-12T09:06:16.886Z,1.30
2023-04-12T09:08:56.064Z,1.20
2023-04-12T09:11:28.317Z,1.20
2023-04-12T09:14:01.177Z,1.23
2023-04-12T09:16:42.819Z,1.37
2023-04-12T09:19:14.268Z,1.33
2023-04-12T09:21:56.700Z,1.27
2023-04-12T09:24:28.321Z,1.00
2023-04-12T09:27:10.910Z,1.23
2023-04-12T09:29:40.319Z,1.10
2023-04-12T09:32:09.277Z,1.30
2023-04-12T09:34:37.301Z,1.10
2023-04-12T09:37:26.906Z,1.30
2023-04-12T09:40:09.186Z,1.50
2023-04-12T09:42:55.154Z,1.30
2023-04-12T09:45:25.554Z,1.20
2023-04-12T09:48:00.619Z,1.17
2023-04-12T09:50:29.784Z,1.67
2023-04-12T09:52:58.456Z,1.60
2023-04-12T09:55:33.711Z,1.33
2023-04-12T09:58:04.558Z,1.50
2023-04-12T10:00:39.332Z,1.60
2023-04-12T10:03:11.370Z,1.97
2023-04-12T10:05:45.173Z,1.73
2023-04-12T10:08:17.791Z,1.70
2023-04-12T10:10:47.727Z,1.53
2023-04-12T10:13:19.505Z,1.30
2023-04-12T10:15:51.602Z,1.60
2023-04-12T10:18:22.287Z,1.60
2023-04-12T10:20:52.038Z,1.60
2023-04-12T10:23:20.486Z,1.87
2023-04-12T10:25:55.213Z,1.50
2023-04-12T10:28:23.066Z,1.77
2023-04-12T10:30:59.357Z,1.47
2023-04-12T10:33:31.493Z,1.83
2023-04-12T10:36:10.952Z,1.60
2023-04-12T10:39:11.039Z,1.53
2023-04-12T10:41:38.004Z,2.00
2023-04-12T10:44:27.077Z,1.80
2023-04-12T10:46:54.144Z,1.77
2023-04-12T10:49:21.234Z,2.10
2023-04-12T10:52:13.718Z,1.90
2023-04-12T10:54:40.982Z,1.87
2023-04-12T10:57:49.528Z,1.77
2023-04-12T11:00:20.262Z,1.80
2023-04-12T11:03:12.531Z,2.17
2023-04-12T11:06:09.652Z,1.67
2023-04-12T11:09:09.389Z,1.70
2023-04-12T11:11:42.014Z,1.60
2023-04-12T11:14:12.693Z,1.83
2023-04-12T11:17:16.418Z,1.80
2023-04-12T11:19:46.920Z,1.60
2023-04-12T11:22:18.013Z,2.00
2023-04-12T11:24:53.772Z,1.83
2023-04-12T11:27:24.787Z,2.27
2023-04-12T11:29:59.747Z,2.03
2023-04-12T11:32:31.101Z,1.70
2023-04-12T11:34:59.010Z,2.00
2023-04-12T11:37:31.298Z,2.13
2023-04-12T11:39:59.340Z,1.93
2023-04-12T11:42:29.937Z,1.63
2023-04-12T11:45:01.066Z,2.30
2023-04-12T11:47:32.108Z,1.90
2023-04-12T11:49:59.896Z,1.70
2023-04-12T11:52:33.782Z,1.80
2023-04-12T11:55:10.904Z,2.17
2023-04-12T11:57:44.903Z,1.87
2023-04-12T12:00:17.343Z,1.80
2023-04-12T12:03:03.912Z,2.10
2023-04-12T12:05:39.123Z,1.83
2023-04-12T12:08:09.768Z,2.27
2023-04-12T12:10:52.423Z,2.00
2023-04-12T12:13:24.920Z,2.23
2023-04-12T12:15:54.879Z,2.00
2023-04-12T12:18:27.226Z,2.33
2023-04-12T12:21:03.823Z,1.60
2023-04-12T12:23:35.464Z,2.00
2023-04-12T12:26:18.338Z,1.60
2023-04-12T12:28:51.796Z,1.70
2023-04-12T12:31:24.502Z,1.70
2023-04-12T12:33:57.213Z,1.73
2023-04-12T12:36:36.095Z,1.83
2023-04-12T12:39:12.999Z,1.50
2023-04-12T12:41:53.054Z,1.60
2023-04-12T12:44:19.878Z,1.93
2023-04-12T12:46:56.940Z,1.80
2023-04-12T12:49:32.313Z,1.87
2023-04-12T12:52:02.137Z,2.00
2023-04-12T12:54:39.388Z,1.87
2023-04-12T12:57:06.902Z,1.50
2023-04-12T12:59:33.760Z,2.07
2023-04-12T13:02:02.843Z,1.60
2023-04-12T13:04:30.020Z,1.60
2023-04-12T13:06:59.738Z,1.50
2023-04-12T13:09:26.539Z,1.60
2023-04-12T13:12:01.841Z,1.70
2023-04-12T13:14:36.493Z,1.50
2023-04-12T13:17:05.719Z,1.43
2023-04-12T13:19:34.944Z,1.37
2023-04-12T13:22:03.847Z,1.63
2023-04-12T13:24:32.901Z,1.37
2023-04-12T13:26:59.714Z,1.47
2023-04-12T13:29:28.914Z,1.80
2023-04-12T13:32:00.593Z,1.70
2023-04-12T13:34:29.504Z,2.27
2023-04-12T13:37:01.092Z,1.50
2023-04-12T13:39:34.178Z,1.70
2023-04-12T13:42:06.408Z,1.80
2023-04-12T13:44:37.711Z,1.40
2023-04-12T13:47:05.093Z,1.73
2023-04-12T13:49:37.190Z,1.70
2023-04-12T13:52:06.475Z,1.80
2023-04-12T13:54:38.535Z,1.70
2023-04-12T13:57:08.121Z,1.30
2023-04-12T13:59:37.748Z,1.33
2023-04-12T14:02:07.746Z,1.50
2023-04-12T14:04:34.915Z,1.43
2023-04-12T14:07:04.274Z,1.50
2023-04-12T14:09:33.820Z,1.27
2023-04-12T14:12:03.433Z,1.30
2023-04-12T14:14:30.369Z,1.40
2023-04-12T14:16:57.642Z,1.60
2023-04-12T14:19:25.047Z,1.50
2023-04-12T14:21:54.668Z,1.10
2023-04-12T14:24:24.148Z,1.40
2023-04-12T14:26:50.990Z,1.50
2023-04-12T14:29:24.972Z,1.70
2023-04-12T14:31:51.841Z,1.20
2023-04-12T14:34:23.667Z,1.50
2023-04-12T14:36:52.874Z,1.30
2023-04-12T14:39:19.781Z,1.53
2023-04-12T14:41:48.968Z,1.50
2023-04-12T14:44:26.063Z,1.20
2023-04-12T14:46:53.580Z,1.17
2023-04-12T14:49:22.956Z,1.53
2023-04-12T14:51:49.774Z,1.20
2023-04-12T14:54:16.827Z,1.20
2023-04-12T14:56:51.471Z,1.10
2023-04-12T14:59:19.579Z,1.20
2023-04-12T15:01:52.232Z,1.10
2023-04-12T15:04:24.022Z,1.10
2023-04-12T15:06:53.938Z,0.97
2023-04-12T15:09:25.920Z,0.90
2023-04-12T15:12:01.055Z,1.33
2023-04-12T15:14:30.864Z,0.90
2023-04-12T15:16:57.768Z,1.00
2023-04-12T15:19:29.715Z,0.97
2023-04-12T15:21:56.717Z,1.17
2023-04-12T15:24:24.696Z,1.00
2023-04-12T15:26:53.136Z,0.90
2023-04-12T15:29:22.035Z,1.50
2023-04-12T15:31:48.922Z,0.90
2023-04-12T15:34:17.908Z,0.73
2023-04-12T15:36:46.006Z,0.90
2023-04-12T15:39:15.260Z,0.70
2023-04-12T15:41:43.151Z,0.80
2023-04-12T15:44:16.663Z,0.60
2023-04-12T15:46:44.146Z,0.87
2023-04-12T15:49:11.382Z,0.80
2023-04-12T15:51:38.779Z,0.90
2023-04-12T15:54:08.089Z,1.00
2023-04-12T15:56:38.063Z,0.80
2023-04-12T15:59:08.996Z,0.60
2023-04-12T16:01:37.976Z,0.80
2023-04-12T16:04:05.434Z,0.70
2023-04-12T16:06:37.908Z,0.70
2023-04-12T16:09:05.203Z,0.63
2023-04-12T16:11:37.401Z,0.70
2023-04-12T16:14:07.170Z,0.70
2023-04-12T16:16:34.012Z,0.70
2023-04-12T16:19:01.126Z,1.17
2023-04-12T16:21:31.264Z,0.77
2023-04-12T16:23:58.516Z,0.83
2023-04-12T16:26:28.330Z,0.60
2023-04-12T16:28:57.606Z,0.60
2023-04-12T16:31:27.027Z,0.90
2023-04-12T16:33:56.533Z,0.70
2023-04-12T16:36:31.222Z,0.70
2023-04-12T16:39:03.337Z,0.70
2023-04-12T16:41:34.735Z,0.50
2023-04-12T16:44:06.140Z,0.70
2023-04-12T16:46:32.972Z,0.70
2023-04-12T16:49:06.974Z,0.60
2023-04-12T16:51:36.687Z,0.70
2023-04-12T16:54:04.077Z,0.60
2023-04-12T16:56:33.303Z,0.70
2023-04-12T16:59:00.172Z,0.60
2023-04-12T17:01:26.935Z,0.70
2023-04-12T17:03:56.111Z,0.93
2023-04-12T17:06:27.289Z,0.73
2023-04-12T17:08:54.285Z,0.90
2023-04-12T17:11:23.614Z,1.20
2023-04-12T17:13:52.485Z,0.90
2023-04-12T17:16:19.793Z,0.87
2023-04-12T17:18:49.054Z,0.97
2023-04-12T17:21:20.001Z,0.90
2023-04-12T17:23:53.863Z,1.00
2023-04-12T17:26:27.154Z,1.30
2023-04-12T17:28:56.764Z,0.80
2023-04-12T17:31:29.263Z,0.70
2023-04-12T17:33:56.550Z,0.80
2023-04-12T17:36:23.707Z,1.00
2023-04-12T17:38:50.574Z,0.80
2023-04-12T17:41:22.245Z,0.77
2023-04-12T17:43:51.343Z,1.10
2023-04-12T17:46:20.763Z,0.90
2023-04-12T17:48:49.988Z,1.00
2023-04-12T17:51:17.033Z,1.10
2023-04-12T17:53:43.865Z,0.97
2023-04-12T17:56:10.992Z,0.90
2023-04-12T17:58:40.112Z,0.73
2023-04-12T18:01:09.291Z,0.80
2023-04-12T18:03:41.683Z,0.80
2023-04-12T18:06:13.689Z,0.77
2023-04-12T18:08:43.047Z,0.70
2023-04-12T18:11:12.977Z,0.90
2023-04-12T18:13:42.355Z,0.80
2023-04-12T18:16:11.949Z,0.90
2023-04-12T18:18:39.128Z,0.80
2023-04-12T18:21:11.346Z,0.77
2023-04-12T18:23:42.713Z,0.70
2023-04-12T18:26:13.405Z,0.90
2023-04-12T18:28:42.557Z,0.80
2023-04-12T18:31:12.149Z,0.80
2023-04-12T18:33:41.430Z,0.77
2023-04-12T18:36:11.736Z,0.90
2023-04-12T18:38:38.860Z,0.80
2023-04-12T18:41:17.513Z,1.10
2023-04-12T18:43:47.123Z,0.70
2023-04-12T18:46:18.938Z,1.00
2023-04-12T18:48:52.179Z,1.13
2023-04-12T18:51:20.037Z,0.80
2023-04-12T18:53:51.427Z,1.07
2023-04-12T18:56:23.760Z,1.50
2023-04-12T18:58:58.825Z,1.00
2023-04-12T19:01:27.738Z,1.10
2023-04-12T19:03:58.361Z,0.90
2023-04-12T19:06:30.352Z,0.90
2023-04-12T19:09:02.059Z,0.93
2023-04-12T19:11:29.734Z,0.80
2023-04-12T19:13:57.011Z,0.97
2023-04-12T19:16:27.450Z,0.60
2023-04-12T19:18:59.722Z,0.80
2023-04-12T19:21:29.289Z,0.80
2023-04-12T19:23:56.463Z,1.03
2023-04-12T19:26:28.316Z,0.63
2023-04-12T19:28:58.155Z,0.90
2023-04-12T19:31:25.669Z,1.03
2023-04-12T19:33:54.334Z,0.70
2023-04-12T19:36:23.044Z,0.80
2023-04-12T19:38:50.328Z,0.70
2023-04-12T19:41:20.617Z,0.83
2023-04-12T19:43:47.638Z,0.90
2023-04-12T19:46:18.045Z,0.70
2023-04-12T19:48:46.270Z,0.70
2023-04-12T19:51:13.806Z,0.73
2023-04-12T19:53:43.025Z,0.70
2023-04-12T19:56:13.018Z,1.07
2023-04-12T19:58:41.441Z,0.80
2023-04-12T20:01:13.637Z,0.80
2023-04-12T20:03:43.586Z,0.97
2023-04-12T20:06:10.974Z,0.70
2023-04-12T20:08:40.329Z,0.93
2023-04-12T20:11:09.676Z,0.90
2023-04-12T20:13:37.042Z,0.80
2023-04-12T20:16:04.382Z,0.90
2023-04-12T20:18:31.232Z,0.93
2023-04-12T20:21:00.178Z,0.90
2023-04-12T20:23:27.824Z,0.80
2023-04-12T20:25:58.940Z,0.93
2023-04-12T20:28:30.585Z,1.03
2023-04-12T20:30:57.745Z,0.90
2023-04-12T20:33:30.080Z,0.90
2023-04-12T20:35:59.599Z,0.93
2023-04-12T20:38:26.616Z,0.97
2023-04-12T20:40:57.387Z,0.90
2023-04-12T20:43:24.786Z,1.00
2023-04-12T20:45:53.931Z,0.73
2023-04-12T20:48:21.771Z,0.80
2023-04-12T20:50:50.247Z,1.00
2023-04-12T20:53:19.373Z,0.90
2023-04-12T20:55:46.196Z,0.83
2023-04-12T20:58:13.147Z,1.07
2023-04-12T21:00:42.733Z,0.83
2023-04-12T21:03:12.340Z,0.97
2023-04-12T21:05:45.958Z,1.00
2023-04-12T21:08:15.320Z,0.80
2023-04-12T21:10:44.183Z,0.90
2023-04-12T21:13:14.065Z,1.00
2023-04-12T21:15:43.428Z,0.93
2023-04-12T21:18:12.564Z,1.00
2023-04-12T21:20:39.499Z,0.90
2023-04-12T21:23:11.671Z,0.90
2023-04-12T21:25:38.941Z,0.93
2023-04-12T21:28:06.927Z,0.93
2023-04-12T21:30:39.024Z,0.73
2023-04-12T21:33:06.016Z,0.70
2023-04-12T21:35:35.421Z,0.80
2023-04-12T21:38:04.526Z,1.33
2023-04-12T21:40:33.578Z,0.90
2023-04-12T21:43:02.742Z,1.10
2023-04-12T21:45:34.257Z,0.93
2023-04-12T21:48:03.773Z,0.97
2023-04-12T21:50:32.972Z,1.00
2023-04-12T21:53:06.697Z,0.90
2023-04-12T21:55:33.632Z,1.00
2023-04-12T21:58:05.907Z,0.73
2023-04-12T22:00:37.352Z,0.60
2023-04-12T22:03:04.646Z,1.03
2023-04-12T22:05:39.682Z,0.90
2023-04-12T22:08:07.698Z,0.80
2023-04-12T22:10:39.389Z,0.90
2023-04-12T22:13:10.203Z,0.90
2023-04-12T22:15:37.401Z,0.97
2023-04-12T22:18:07.779Z,1.53
2023-04-12T22:20:35.142Z,1.00
2023-04-12T22:23:07.332Z,0.80
2023-04-12T22:25:35.230Z,0.90
2023-04-12T22:28:04.113Z,0.80
2023-04-12T22:30:35.893Z,0.80
2023-04-12T22:33:05.368Z,1.00
2023-04-12T22:35:39.316Z,0.90
2023-04-12T22:38:06.488Z,1.00
2023-04-12T22:40:41.987Z,0.90
2023-04-12T22:43:18.037Z,0.77
2023-04-12T22:45:47.435Z,1.03
2023-04-12T22:48:14.878Z,1.00
2023-04-12T22:50:45.099Z,1.00
2023-04-12T22:53:13.839Z,1.10
2023-04-12T22:55:47.553Z,1.00
2023-04-12T22:58:19.614Z,0.80
2023-04-12T23:00:49.146Z,1.00
2023-04-12T23:03:18.627Z,1.00
2023-04-12T23:05:48.662Z,1.13
2023-04-12T23:08:21.962Z,1.10
2023-04-12T23:10:54.061Z,1.10
2023-04-12T23:13:20.862Z,0.97
2023-04-12T23:15:50.090Z,0.90
2023-04-12T23:18:21.357Z,0.97
2023-04-12T23:20:51.125Z,1.00
2023-04-12T23:23:18.487Z,0.80
2023-04-12T23:25:45.676Z,0.70
2023-04-12T23:28:19.371Z,1.10
2023-04-12T23:30:51.943Z,1.00
2023-04-12T23:33:25.548Z,1.00
2023-04-12T23:35:53.083Z,1.00
2023-04-12T23:38:31.890Z,1.00
2023-04-12T23:41:04.035Z,1.10
2023-04-12T23:43:36.976Z,1.03
2023-04-12T23:46:06.885Z,1.33
2023-04-12T23:48:36.615Z,1.57
2023-04-12T23:51:06.725Z,1.20
2023-04-12T23:53:33.571Z,0.90
2023-04-12T23:56:00.369Z,1.23
2023-04-12T23:58:27.336Z,1.17
